Time;durP1;ratioP1;P1;durP2;ratioP2;P2;SDS_P1;SDS_P2;PMS_P1;PMS_P2;Temp;Humidity;BMP_temperature;BMP_pressure;BME280_temperature;BME280_humidity;BME280_pressure;Samples;Min_cycle;Max_cycle;Signal;HPM_P1;HPM_P2
2022/12/18 00:01:45;;;;;;;;;;;16.20;99.90;;;;;;5114746;28;19912;-71
2022/12/18 00:04:23;;;;;;;;;;;16.30;99.90;;;;;;5116026;28;19912;-70
2022/12/18 00:06:49;;;;;;;;;;;16.40;99.90;;;;;;5114531;28;20342;-71
2022/12/18 00:09:16;;;;;;;;;;;16.20;99.90;;;;;;5115944;28;19908;-69
2022/12/18 00:11:43;;;;;;;;;;;16.00;99.90;;;;;;5110889;28;19911;-70
2022/12/18 00:14:11;;;;;;;;;;;16.20;99.90;;;;;;5110988;28;19912;-69
2022/12/18 00:16:38;;;;;;;;;;;16.10;99.90;;;;;;5115783;28;19919;-71
2022/12/18 00:19:07;;;;;;;;;;;16.20;99.90;;;;;;5114090;28;19960;-70
2022/12/18 00:21:34;;;;;;;;;;;15.70;99.90;;;;;;5115846;28;19976;-71
2022/12/18 00:24:01;;;;;;;;;;;15.50;99.90;;;;;;5111093;28;20289;-69
2022/12/18 00:26:32;;;;;;;;;;;15.70;99.90;;;;;;5113731;28;20107;-69
2022/12/18 00:29:00;;;;;;;;;;;15.60;99.90;;;;;;5114969;28;19917;-70
2022/12/18 00:31:27;;;;;;;;;;;15.70;99.90;;;;;;5110921;28;19911;-71
2022/12/18 00:33:57;;;;;;;;;;;15.90;99.90;;;;;;5115527;28;20370;-70
2022/12/18 00:36:25;;;;;;;;;;;16.00;99.90;;;;;;5109613;28;19926;-66
2022/12/18 00:38:53;;;;;;;;;;;16.20;99.90;;;;;;5113748;28;20346;-69
2022/12/18 00:44:21;;;;;;;;;;;16.50;99.90;;;;;;5051134;28;19974;-67
2022/12/18 00:46:48;;;;;;;;;;;16.60;99.90;;;;;;5102085;28;19954;-65
2022/12/18 00:49:22;;;;;;;;;;;16.60;99.90;;;;;;5113808;28;19957;-69
2022/12/18 00:51:49;;;;;;;;;;;16.70;99.90;;;;;;5110570;28;20323;-66
2022/12/18 00:54:16;;;;;;;;;;;16.80;99.90;;;;;;5113673;28;19965;-66
2022/12/18 00:56:43;;;;;;;;;;;16.80;99.90;;;;;;5112988;28;20263;-69
2022/12/18 00:59:10;;;;;;;;;;;16.70;99.90;;;;;;5114787;28;19986;-67
2022/12/18 01:01:36;;;;;;;;;;;16.70;99.90;;;;;;5113778;28;19964;-67
2022/12/18 01:04:03;;;;;;;;;;;16.70;99.90;;;;;;5110173;28;19912;-70
2022/12/18 01:06:30;;;;;;;;;;;16.50;99.90;;;;;;5115308;28;19908;-70
2022/12/18 01:08:57;;;;;;;;;;;16.60;99.90;;;;;;5113579;28;19912;-70
2022/12/18 01:11:24;;;;;;;;;;;16.30;99.90;;;;;;5115053;28;19953;-70
2022/12/18 01:13:52;;;;;;;;;;;16.10;99.90;;;;;;5113586;28;19912;-70
2022/12/18 01:16:18;;;;;;;;;;;15.70;99.90;;;;;;5096558;28;19916;-71
2022/12/18 01:18:45;;;;;;;;;;;15.60;99.90;;;;;;5109091;28;19915;-68
2022/12/18 01:21:14;;;;;;;;;;;15.70;99.90;;;;;;5114695;28;19911;-71
2022/12/18 01:23:40;;;;;;;;;;;15.80;99.90;;;;;;5113438;28;19915;-70
2022/12/18 01:26:08;;;;;;;;;;;15.80;99.90;;;;;;5112893;28;19950;-66
2022/12/18 01:28:35;;;;;;;;;;;15.90;99.90;;;;;;5114380;28;19908;-66
2022/12/18 01:31:14;;;;;;;;;;;15.80;99.90;;;;;;5112933;28;20259;-67
2022/12/18 01:33:41;;;;;;;;;;;15.70;99.90;;;;;;5109455;28;19916;-70
2022/12/18 01:36:08;;;;;;;;;;;15.90;99.90;;;;;;5114090;28;19922;-69
2022/12/18 01:38:35;;;;;;;;;;;15.70;99.90;;;;;;5112763;28;19907;-70
2022/12/18 01:41:02;;;;;;;;;;;15.80;99.90;;;;;;5113062;28;19943;-70
2022/12/18 01:43:48;;;;;;;;;;;15.50;99.90;;;;;;5112349;28;19915;-69
2022/12/18 01:46:16;;;;;;;;;;;15.50;99.90;;;;;;5109355;28;19912;-70
2022/12/18 01:48:44;;;;;;;;;;;15.50;99.90;;;;;;5112727;28;19961;-70
2022/12/18 01:51:12;;;;;;;;;;;15.40;99.90;;;;;;5114224;28;19913;-67
2022/12/18 01:53:40;;;;;;;;;;;15.50;99.90;;;;;;5080406;28;20097;-68
2022/12/18 01:56:07;;;;;;;;;;;15.70;99.90;;;;;;5091493;28;19981;-68
2022/12/18 01:59:00;;;;;;;;;;;15.70;99.90;;;;;;5105163;28;20006;-69
2022/12/18 02:01:27;;;;;;;;;;;15.80;99.90;;;;;;5096818;28;19916;-69
2022/12/18 02:03:54;;;;;;;;;;;15.60;99.90;;;;;;5086656;28;19965;-69
2022/12/18 02:06:40;;;;;;;;;;;15.50;99.90;;;;;;5103580;28;19915;-65
2022/12/18 02:09:07;;;;;;;;;;;15.50;99.90;;;;;;5086377;28;19912;-67
2022/12/18 02:11:33;;;;;;;;;;;15.40;99.90;;;;;;5103577;28;19961;-66
2022/12/18 02:14:09;;;;;;;;;;;15.40;99.90;;;;;;5100003;28;20385;-69
2022/12/18 02:16:39;;;;;;;;;;;15.40;99.90;;;;;;5103427;28;19951;-67
2022/12/18 02:19:23;;;;;;;;;;;15.50;99.90;;;;;;5104304;28;20398;-65
2022/12/18 02:22:02;;;;;;;;;;;15.70;99.90;;;;;;5103307;28;19916;-61
2022/12/18 02:24:29;;;;;;;;;;;15.60;99.90;;;;;;5103067;28;19970;-70
2022/12/18 02:27:00;;;;;;;;;;;15.80;99.90;;;;;;5102424;28;19918;-69
2022/12/18 02:29:30;;;;;;;;;;;16.20;99.90;;;;;;5103085;28;19966;-70
2022/12/18 02:32:00;;;;;;;;;;;16.50;99.90;;;;;;5102605;28;19918;-63
2022/12/18 02:34:29;;;;;;;;;;;16.80;99.90;;;;;;5105168;28;19972;-70
2022/12/18 02:36:57;;;;;;;;;;;17.00;99.90;;;;;;5102957;28;19959;-69
2022/12/18 02:39:25;;;;;;;;;;;17.00;99.90;;;;;;5104857;28;19934;-69
2022/12/18 02:41:52;;;;;;;;;;;17.20;99.90;;;;;;5099632;28;19920;-69
2022/12/18 02:44:19;;;;;;;;;;;17.10;99.90;;;;;;5103350;28;19919;-69
2022/12/18 02:46:53;;;;;;;;;;;17.30;99.90;;;;;;5104323;28;19970;-64
2022/12/18 02:49:25;;;;;;;;;;;17.30;99.90;;;;;;5102458;28;19958;-64
2022/12/18 02:51:54;;;;;;;;;;;17.40;99.90;;;;;;5103288;28;19918;-65
2022/12/18 02:54:21;;;;;;;;;;;17.60;99.90;;;;;;5099473;28;19955;-64
2022/12/18 02:56:56;;;;;;;;;;;17.60;99.90;;;;;;5104224;28;19955;-63
2022/12/18 02:59:29;;;;;;;;;;;17.60;99.90;;;;;;5103026;28;20689;-66
2022/12/18 03:02:03;;;;;;;;;;;17.60;99.90;;;;;;5105110;28;20014;-63
2022/12/18 03:04:33;;;;;;;;;;;17.50;99.90;;;;;;5102691;28;19955;-63
2022/12/18 03:07:02;;;;;;;;;;;17.60;99.90;;;;;;5099762;28;20366;-64
2022/12/18 03:09:35;;;;;;;;;;;17.80;99.90;;;;;;5104304;28;19951;-70
2022/12/18 03:12:24;;;;;;;;;;;17.80;99.90;;;;;;5102307;28;20617;-70
2022/12/18 03:14:57;;;;;;;;;;;17.90;99.90;;;;;;5103810;28;19939;-64
2022/12/18 03:17:25;;;;;;;;;;;18.10;99.90;;;;;;5102700;28;19977;-67
2022/12/18 03:19:53;;;;;;;;;;;18.10;99.90;;;;;;5103859;28;19913;-62
2022/12/18 03:22:20;;;;;;;;;;;18.00;99.90;;;;;;5098935;28;19916;-66
2022/12/18 03:24:48;;;;;;;;;;;18.10;99.90;;;;;;5101653;28;20380;-68
2022/12/18 03:27:17;;;;;;;;;;;17.90;99.90;;;;;;5104187;28;19912;-69
2022/12/18 03:29:58;;;;;;;;;;;17.90;99.90;;;;;;5102472;28;19916;-70
2022/12/18 03:32:31;;;;;;;;;;;18.00;99.90;;;;;;5099592;28;19923;-67
2022/12/18 03:35:00;;;;;;;;;;;18.10;99.90;;;;;;5103811;28;19915;-69
2022/12/18 03:37:26;;;;;;;;;;;17.90;99.90;;;;;;5102544;28;19930;-71
2022/12/18 03:39:53;;;;;;;;;;;17.80;99.90;;;;;;5103574;28;20331;-70
2022/12/18 03:42:29;;;;;;;;;;;17.90;99.90;;;;;;5102930;28;19916;-70
2022/12/18 03:45:07;;;;;;;;;;;17.70;99.90;;;;;;5102603;28;19912;-71
2022/12/18 03:47:34;;;;;;;;;;;17.50;99.90;;;;;;5104021;28;19912;-69
2022/12/18 03:50:07;;;;;;;;;;;17.50;99.90;;;;;;5102263;28;19919;-68
2022/12/18 03:52:48;;;;;;;;;;;17.40;99.90;;;;;;5102343;28;20010;-69
2022/12/18 03:55:15;;;;;;;;;;;17.30;99.90;;;;;;5063839;28;19951;-68
2022/12/18 03:57:42;;;;;;;;;;;17.20;99.90;;;;;;5063834;28;19932;-62
2022/12/18 04:00:11;;;;;;;;;;;17.30;99.90;;;;;;5082783;28;20019;-68
2022/12/18 04:02:39;;;;;;;;;;;17.30;99.90;;;;;;5082938;28;19919;-62
2022/12/18 04:05:07;;;;;;;;;;;17.30;99.90;;;;;;5085437;28;20007;-70
2022/12/18 04:07:34;;;;;;;;;;;17.40;99.90;;;;;;5087778;28;20612;-68
2022/12/18 04:10:02;;;;;;;;;;;17.60;99.90;;;;;;5087334;28;19919;-66
2022/12/18 04:12:29;;;;;;;;;;;17.70;99.90;;;;;;5084881;28;20491;-69
2022/12/18 04:14:56;;;;;;;;;;;17.60;99.90;;;;;;5087306;28;20394;-66
2022/12/18 04:17:23;;;;;;;;;;;17.70;99.90;;;;;;5086742;28;19927;-63
2022/12/18 04:19:50;;;;;;;;;;;17.70;99.90;;;;;;5087367;28;20405;-69
2022/12/18 04:22:18;;;;;;;;;;;17.80;99.90;;;;;;5086068;28;19919;-64
2022/12/18 04:24:44;;;;;;;;;;;17.90;99.90;;;;;;5087662;28;19916;-66
2022/12/18 04:27:11;;;;;;;;;;;18.10;99.90;;;;;;5086813;28;19912;-66
2022/12/18 04:29:38;;;;;;;;;;;18.40;99.90;;;;;;5086620;28;19916;-68
2022/12/18 04:32:05;;;;;;;;;;;18.30;99.90;;;;;;5087079;28;19912;-65
2022/12/18 04:34:31;;;;;;;;;;;18.00;99.90;;;;;;5086747;28;19912;-67
2022/12/18 04:36:58;;;;;;;;;;;18.00;99.90;;;;;;5085838;28;19920;-64
2022/12/18 04:39:25;;;;;;;;;;;18.30;99.90;;;;;;5086002;28;20325;-67
2022/12/18 04:41:51;;;;;;;;;;;18.40;99.90;;;;;;5066642;28;19923;-67
2022/12/18 04:44:18;;;;;;;;;;;18.60;99.90;;;;;;5065976;28;19916;-62
2022/12/18 04:46:45;;;;;;;;;;;18.50;99.90;;;;;;5066517;28;19913;-63
2022/12/18 04:49:12;;;;;;;;;;;18.40;99.90;;;;;;5066594;28;20636;-67
2022/12/18 04:51:39;;;;;;;;;;;18.40;99.90;;;;;;5070703;28;20019;-65
2022/12/18 04:54:05;;;;;;;;;;;18.40;99.90;;;;;;5086600;28;20445;-65
2022/12/18 04:56:32;;;;;;;;;;;18.10;99.90;;;;;;5093387;28;20598;-67
2022/12/18 04:58:59;;;;;;;;;;;18.00;99.90;;;;;;5106645;28;19920;-67
2022/12/18 05:01:26;;;;;;;;;;;18.20;99.90;;;;;;5106873;28;19943;-65
2022/12/18 05:03:52;;;;;;;;;;;18.20;99.90;;;;;;5107086;28;20652;-68
2022/12/18 05:06:19;;;;;;;;;;;18.10;99.90;;;;;;5102612;28;19917;-67
2022/12/18 05:08:46;;;;;;;;;;;18.30;99.90;;;;;;5103617;28;19974;-63
2022/12/18 05:11:17;;;;;;;;;;;18.30;99.90;;;;;;5106720;28;19912;-66
2022/12/18 05:13:44;;;;;;;;;;;18.40;99.90;;;;;;5106450;28;19911;-68
2022/12/18 05:16:11;;;;;;;;;;;18.20;99.90;;;;;;5106177;28;19919;-66
2022/12/18 05:18:41;;;;;;;;;;;17.90;99.90;;;;;;5105301;28;19912;-67
2022/12/18 05:21:08;;;;;;;;;;;18.00;99.90;;;;;;5104419;28;19919;-67
2022/12/18 05:23:35;;;;;;;;;;;18.10;99.90;;;;;;5106193;28;19911;-64
2022/12/18 05:26:03;;;;;;;;;;;18.10;99.90;;;;;;5106255;28;19919;-67
2022/12/18 05:28:31;;;;;;;;;;;18.00;99.90;;;;;;5105875;28;20603;-66
2022/12/18 05:31:00;;;;;;;;;;;18.00;99.90;;;;;;5105794;28;19986;-67
2022/12/18 05:33:27;;;;;;;;;;;18.20;99.90;;;;;;5106059;28;19919;-67
2022/12/18 05:35:55;;;;;;;;;;;18.20;99.90;;;;;;5104153;28;19923;-66
2022/12/18 05:38:22;;;;;;;;;;;18.20;99.90;;;;;;5102851;28;20449;-67
2022/12/18 05:40:49;;;;;;;;;;;18.10;99.90;;;;;;5105791;28;19911;-68
2022/12/18 05:43:16;;;;;;;;;;;18.20;99.90;;;;;;5105713;28;19911;-64
2022/12/18 05:45:43;;;;;;;;;;;18.20;99.90;;;;;;5087351;28;20381;-66
2022/12/18 05:48:10;;;;;;;;;;;18.20;99.90;;;;;;5105833;28;19912;-66
2022/12/18 05:50:37;;;;;;;;;;;18.40;99.90;;;;;;5101284;28;19951;-68
2022/12/18 05:53:05;;;;;;;;;;;18.50;99.90;;;;;;5105486;28;20331;-63
2022/12/18 05:55:35;;;;;;;;;;;18.40;99.90;;;;;;5107472;28;19915;-69
2022/12/18 05:58:03;;;;;;;;;;;18.40;99.90;;;;;;5105929;28;19924;-67
2022/12/18 06:00:30;;;;;;;;;;;18.30;99.90;;;;;;5105881;28;19912;-68
2022/12/18 06:02:56;;;;;;;;;;;18.20;99.90;;;;;;5105618;28;19911;-67
2022/12/18 06:05:23;;;;;;;;;;;18.20;99.90;;;;;;5103555;28;19916;-68
2022/12/18 06:07:50;;;;;;;;;;;18.40;99.90;;;;;;5104007;28;19923;-68
2022/12/18 06:10:16;;;;;;;;;;;18.40;99.90;;;;;;5105251;28;20025;-61
2022/12/18 06:12:45;;;;;;;;;;;18.30;99.90;;;;;;5105126;28;19912;-63
2022/12/18 06:15:11;;;;;;;;;;;18.10;99.90;;;;;;5105397;28;20670;-68
2022/12/18 06:17:38;;;;;;;;;;;18.10;99.90;;;;;;5105205;28;19924;-68
2022/12/18 06:20:06;;;;;;;;;;;18.10;99.90;;;;;;5104007;28;19930;-64
2022/12/18 06:22:34;;;;;;;;;;;18.10;99.90;;;;;;5105026;28;19923;-65
2022/12/18 06:25:01;;;;;;;;;;;18.20;99.90;;;;;;5104694;28;20425;-67
2022/12/18 06:27:28;;;;;;;;;;;18.10;99.90;;;;;;5104645;28;19988;-68
2022/12/18 06:29:54;;;;;;;;;;;18.10;99.90;;;;;;5105163;28;19922;-61
2022/12/18 06:32:21;;;;;;;;;;;18.00;99.90;;;;;;5104778;28;19969;-68
2022/12/18 06:34:48;;;;;;;;;;;18.00;99.90;;;;;;5102861;28;20344;-67
2022/12/18 06:37:14;;;;;;;;;;;18.00;99.90;;;;;;5104716;28;19927;-67
2022/12/18 06:39:41;;;;;;;;;;;18.10;99.90;;;;;;5103698;28;19919;-67
2022/12/18 06:42:08;;;;;;;;;;;18.10;99.90;;;;;;5104796;28;19919;-66
2022/12/18 06:44:34;;;;;;;;;;;18.20;99.90;;;;;;5105452;28;19965;-65
2022/12/18 06:47:01;;;;;;;;;;;18.10;99.90;;;;;;5105193;28;19912;-66
2022/12/18 06:49:28;;;;;;;;;;;18.10;99.90;;;;;;5103806;28;19916;-65
2022/12/18 06:51:54;;;;;;;;;;;18.00;99.90;;;;;;5105719;28;19916;-61
2022/12/18 06:54:21;;;;;;;;;;;18.10;99.90;;;;;;5105287;28;20002;-65
2022/12/18 06:56:48;;;;;;;;;;;18.00;99.90;;;;;;5104965;28;19927;-65
2022/12/18 06:59:15;;;;;;;;;;;18.00;99.90;;;;;;5105465;28;19929;-62
2022/12/18 07:01:41;;;;;;;;;;;17.90;99.90;;;;;;5105899;28;19923;-65
2022/12/18 07:04:08;;;;;;;;;;;17.90;99.90;;;;;;5103555;28;21565;-63
2022/12/18 07:06:35;;;;;;;;;;;17.80;99.90;;;;;;5103182;28;19965;-65
2022/12/18 07:09:01;;;;;;;;;;;17.70;99.90;;;;;;5105072;28;19912;-64
2022/12/18 07:11:28;;;;;;;;;;;17.60;99.90;;;;;;5105883;28;19916;-60
2022/12/18 07:13:55;;;;;;;;;;;17.60;99.90;;;;;;5106703;28;20026;-63
2022/12/18 07:16:22;;;;;;;;;;;17.60;99.90;;;;;;5104347;28;19930;-63
2022/12/18 07:18:49;;;;;;;;;;;17.70;99.90;;;;;;5105931;28;19916;-63
2022/12/18 07:21:16;;;;;;;;;;;17.80;99.90;;;;;;5105737;28;19980;-65
2022/12/18 07:23:44;;;;;;;;;;;17.90;99.90;;;;;;5105644;28;20419;-64
2022/12/18 07:26:12;;;;;;;;;;;17.80;99.90;;;;;;5104419;28;19916;-67
2022/12/18 07:28:40;;;;;;;;;;;17.60;99.90;;;;;;5104585;28;20297;-67
2022/12/18 07:31:16;;;;;;;;;;;17.60;99.90;;;;;;5100684;28;20412;-67
2022/12/18 07:33:43;;;;;;;;;;;17.60;99.90;;;;;;5099340;28;19915;-67
2022/12/18 07:36:10;;;;;;;;;;;17.60;99.90;;;;;;5104493;28;19935;-66
2022/12/18 07:38:37;;;;;;;;;;;17.60;99.90;;;;;;5104516;28;20442;-62
2022/12/18 07:41:06;;;;;;;;;;;17.70;99.90;;;;;;5083747;28;19920;-67
2022/12/18 07:43:33;;;;;;;;;;;17.60;99.90;;;;;;5106547;28;19924;-68
2022/12/18 07:45:59;;;;;;;;;;;17.50;99.90;;;;;;5107953;28;19912;-67
2022/12/18 07:48:26;;;;;;;;;;;17.50;99.90;;;;;;5107319;28;19918;-66
2022/12/18 07:50:53;;;;;;;;;;;17.40;99.90;;;;;;5108546;28;19947;-68
2022/12/18 07:53:19;;;;;;;;;;;17.50;99.90;;;;;;5108051;28;20582;-68
2022/12/18 07:55:46;;;;;;;;;;;17.40;99.90;;;;;;5104139;28;19916;-68
2022/12/18 07:58:13;;;;;;;;;;;17.30;99.90;;;;;;5106480;28;19923;-63
2022/12/18 08:00:40;;;;;;;;;;;17.30;99.90;;;;;;5107851;28;19926;-65
2022/12/18 08:03:07;;;;;;;;;;;17.20;99.90;;;;;;5107561;28;20376;-67
2022/12/18 08:05:33;;;;;;;;;;;17.20;99.90;;;;;;5107778;28;20401;-64
2022/12/18 08:08:00;;;;;;;;;;;17.10;99.90;;;;;;5107543;28;19919;-68
2022/12/18 08:10:27;;;;;;;;;;;17.10;99.90;;;;;;5103887;28;20021;-67
2022/12/18 08:12:53;;;;;;;;;;;16.90;99.90;;;;;;5105393;28;20376;-69
2022/12/18 08:15:20;;;;;;;;;;;16.90;99.90;;;;;;5116488;28;20322;-68
2022/12/18 08:17:47;;;;;;;;;;;16.80;99.90;;;;;;5116250;28;19916;-68
2022/12/18 08:20:18;;;;;;;;;;;16.80;99.90;;;;;;5116107;28;20442;-68
2022/12/18 08:22:45;;;;;;;;;;;16.80;99.90;;;;;;5116316;28;19943;-68
2022/12/18 08:25:11;;;;;;;;;;;16.80;99.90;;;;;;5114088;28;19912;-68
2022/12/18 08:27:38;;;;;;;;;;;16.80;99.90;;;;;;5110590;28;19912;-70
2022/12/18 08:30:05;;;;;;;;;;;16.80;99.90;;;;;;5115979;28;19912;-69
2022/12/18 08:32:32;;;;;;;;;;;16.90;99.90;;;;;;5115855;28;19908;-69
2022/12/18 08:34:59;;;;;;;;;;;16.90;99.90;;;;;;5115696;28;19912;-67
2022/12/18 08:37:26;;;;;;;;;;;16.90;99.90;;;;;;5115628;28;19916;-68
2022/12/18 08:39:52;;;;;;;;;;;17.00;99.90;;;;;;5114112;28;19908;-68
2022/12/18 08:45:04;;;;;;;;;;;16.90;99.90;;;;;;5115715;28;19941;-65
2022/12/18 08:47:30;;;;;;;;;;;16.80;99.90;;;;;;5115461;28;19907;-62
2022/12/18 08:49:57;;;;;;;;;;;16.80;99.90;;;;;;5115103;28;19965;-61
2022/12/18 08:52:24;;;;;;;;;;;16.80;99.90;;;;;;5115423;28;19915;-62
2022/12/18 08:54:50;;;;;;;;;;;16.80;99.90;;;;;;5113327;28;19976;-64
2022/12/18 08:57:17;;;;;;;;;;;16.70;99.90;;;;;;5114843;28;19920;-68
2022/12/18 08:59:44;;;;;;;;;;;16.60;99.90;;;;;;5115249;28;19946;-68
2022/12/18 09:02:11;;;;;;;;;;;16.60;99.90;;;;;;5115010;28;19915;-68
2022/12/18 09:04:39;;;;;;;;;;;15.90;99.90;;;;;;5115053;28;20310;-68
2022/12/18 09:07:06;;;;;;;;;;;15.10;99.90;;;;;;5113151;28;19912;-67
2022/12/18 09:09:33;;;;;;;;;;;14.80;99.90;;;;;;5104014;28;19916;-68
2022/12/18 09:11:59;;;;;;;;;;;14.70;99.90;;;;;;5104859;28;21406;-70
2022/12/18 09:14:26;;;;;;;;;;;14.70;99.90;;;;;;5105802;28;19935;-70
2022/12/18 09:16:53;;;;;;;;;;;14.60;99.90;;;;;;5105745;28;19919;-69
2022/12/18 09:19:19;;;;;;;;;;;14.50;99.90;;;;;;5105982;28;19915;-65
2022/12/18 09:21:46;;;;;;;;;;;14.40;99.90;;;;;;5105711;28;19912;-64
2022/12/18 09:24:14;;;;;;;;;;;14.50;99.90;;;;;;5103991;28;20315;-70
2022/12/18 09:26:41;;;;;;;;;;;14.50;99.90;;;;;;5106112;28;19916;-63
2022/12/18 09:29:07;;;;;;;;;;;14.50;99.90;;;;;;5105727;28;20601;-69
2022/12/18 09:31:34;;;;;;;;;;;14.40;99.90;;;;;;5105665;28;19961;-70
2022/12/18 09:34:01;;;;;;;;;;;14.40;99.90;;;;;;5105477;28;19911;-70
2022/12/18 09:36:28;;;;;;;;;;;14.50;99.90;;;;;;5105615;28;20257;-70
2022/12/18 09:38:54;;;;;;;;;;;14.50;99.90;;;;;;5103688;28;19924;-70
2022/12/18 09:41:28;;;;;;;;;;;14.60;99.90;;;;;;5105685;28;19912;-69
2022/12/18 09:43:58;;;;;;;;;;;14.60;99.90;;;;;;5105902;28;20014;-70
2022/12/18 09:46:37;;;;;;;;;;;14.60;99.90;;;;;;5105873;28;20031;-71
2022/12/18 09:49:06;;;;;;;;;;;14.70;99.90;;;;;;5105453;28;19951;-70
2022/12/18 09:51:35;;;;;;;;;;;14.70;99.90;;;;;;5106062;28;19912;-65
2022/12/18 09:54:07;;;;;;;;;;;14.70;99.90;;;;;;5103938;28;19992;-70
2022/12/18 09:56:40;;;;;;;;;;;14.80;99.90;;;;;;5104984;28;19920;-70
2022/12/18 09:59:14;;;;;;;;;;;14.90;99.90;;;;;;5105259;28;20350;-70
2022/12/18 10:01:40;;;;;;;;;;;14.90;99.90;;;;;;5104614;28;19919;-64
2022/12/18 10:04:09;;;;;;;;;;;15.00;99.90;;;;;;5105512;28;20757;-69
2022/12/18 10:06:47;;;;;;;;;;;15.10;99.90;;;;;;5105451;28;19916;-70
2022/12/18 10:09:23;;;;;;;;;;;15.10;99.90;;;;;;5103862;28;19982;-70
2022/12/18 10:11:59;;;;;;;;;;;15.10;99.90;;;;;;5105248;28;19958;-70
2022/12/18 10:14:44;;;;;;;;;;;15.20;99.90;;;;;;5105202;28;20002;-71
2022/12/18 10:17:10;;;;;;;;;;;15.10;99.90;;;;;;5105675;28;19919;-72
2022/12/18 10:19:40;;;;;;;;;;;15.20;99.90;;;;;;5104987;28;19912;-70
2022/12/18 10:22:10;;;;;;;;;;;15.20;99.90;;;;;;5105057;28;20402;-71
2022/12/18 10:24:42;;;;;;;;;;;15.10;99.90;;;;;;5102780;28;19920;-70
2022/12/18 10:27:17;;;;;;;;;;;15.20;99.90;;;;;;5104394;28;19916;-71
2022/12/18 10:29:45;;;;;;;;;;;15.20;99.90;;;;;;5104975;28;20652;-70
2022/12/18 10:32:22;;;;;;;;;;;15.30;99.90;;;;;;5104904;28;19912;-71
2022/12/18 10:34:51;;;;;;;;;;;15.30;99.90;;;;;;5104889;28;19923;-68
2022/12/18 10:37:19;;;;;;;;;;;15.20;99.90;;;;;;5103487;28;20382;-66
2022/12/18 10:39:46;;;;;;;;;;;15.30;99.90;;;;;;5104378;28;19911;-63
2022/12/18 10:42:19;;;;;;;;;;;15.30;99.90;;;;;;5104817;28;19918;-68
2022/12/18 10:44:46;;;;;;;;;;;15.40;99.90;;;;;;5111419;28;19908;-64
2022/12/18 10:47:16;;;;;;;;;;;15.30;99.90;;;;;;5113421;28;19908;-70
2022/12/18 10:49:48;;;;;;;;;;;15.00;99.90;;;;;;5113414;28;19932;-67
2022/12/18 10:52:17;;;;;;;;;;;14.90;99.90;;;;;;5111496;28;21387;-69
2022/12/18 10:54:58;;;;;;;;;;;14.90;99.90;;;;;;5109838;28;19958;-68
2022/12/18 10:57:31;;;;;;;;;;;14.80;99.90;;;;;;5113139;28;19926;-67
2022/12/18 10:59:59;;;;;;;;;;;14.90;99.90;;;;;;5113274;28;20286;-70
2022/12/18 11:02:27;;;;;;;;;;;14.90;99.90;;;;;;5113542;28;19912;-68
2022/12/18 11:04:54;;;;;;;;;;;14.90;99.90;;;;;;5113036;28;19915;-70
2022/12/18 11:07:20;;;;;;;;;;;14.80;99.90;;;;;;5111619;28;20294;-67
2022/12/18 11:09:59;;;;;;;;;;;14.70;99.90;;;;;;5113109;28;20115;-67
2022/12/18 11:12:28;;;;;;;;;;;14.80;99.90;;;;;;5113313;28;19908;-69
2022/12/18 11:14:56;;;;;;;;;;;14.80;99.90;;;;;;5117344;28;20377;-64
2022/12/18 11:17:25;;;;;;;;;;;14.80;99.90;;;;;;5117458;28;19912;-69
2022/12/18 11:19:53;;;;;;;;;;;14.70;99.90;;;;;;5117498;28;20017;-69
2022/12/18 11:22:22;;;;;;;;;;;14.80;99.90;;;;;;5115153;28;19918;-69
2022/12/18 11:24:58;;;;;;;;;;;14.80;99.90;;;;;;5115540;28;20309;-68
2022/12/18 11:27:25;;;;;;;;;;;14.80;99.90;;;;;;5117126;28;19908;-67
2022/12/18 11:29:52;;;;;;;;;;;14.80;99.90;;;;;;5117068;28;20278;-65
2022/12/18 11:32:19;;;;;;;;;;;14.70;99.90;;;;;;5116956;28;19948;-67
2022/12/18 11:34:47;;;;;;;;;;;14.70;99.90;;;;;;5116833;28;19925;-69
2022/12/18 11:37:15;;;;;;;;;;;14.70;99.90;;;;;;5114549;28;19919;-68
2022/12/18 11:39:54;;;;;;;;;;;14.70;99.90;;;;;;5116879;28;19999;-70
2022/12/18 11:42:41;;;;;;;;;;;14.60;99.90;;;;;;5116898;28;19937;-69
2022/12/18 11:45:18;;;;;;;;;;;14.70;99.90;;;;;;5116844;28;20124;-70
2022/12/18 11:47:59;;;;;;;;;;;14.70;99.90;;;;;;5116542;28;19907;-70
2022/12/18 11:50:30;;;;;;;;;;;14.70;99.90;;;;;;5080348;28;19940;-67
2022/12/18 11:52:56;;;;;;;;;;;14.80;99.90;;;;;;5107980;28;19918;-65
2022/12/18 11:55:23;;;;;;;;;;;14.70;99.90;;;;;;5116264;28;20387;-65
2022/12/18 11:57:57;;;;;;;;;;;14.80;99.90;;;;;;5116254;28;19919;-70
2022/12/18 12:00:24;;;;;;;;;;;14.70;99.90;;;;;;5116501;28;19995;-70
2022/12/18 12:02:51;;;;;;;;;;;14.70;99.90;;;;;;5117293;28;19915;-68
2022/12/18 12:05:36;;;;;;;;;;;14.70;99.90;;;;;;5118284;28;20007;-66
2022/12/18 12:08:02;;;;;;;;;;;14.70;99.90;;;;;;5116565;28;20359;-69
2022/12/18 12:10:47;;;;;;;;;;;14.80;99.90;;;;;;5117163;28;19912;-69
2022/12/18 12:13:14;;;;;;;;;;;14.80;99.90;;;;;;5117793;28;19939;-65
2022/12/18 12:15:46;;;;;;;;;;;14.70;99.90;;;;;;5117877;28;19908;-62
2022/12/18 12:18:33;;;;;;;;;;;14.70;99.90;;;;;;5116952;28;19923;-61
2022/12/18 12:20:59;;;;;;;;;;;14.70;99.90;;;;;;5114486;28;19912;-62
2022/12/18 12:23:35;;;;;;;;;;;14.70;99.90;;;;;;5115564;28;19908;-61
2022/12/18 12:26:04;;;;;;;;;;;14.80;99.90;;;;;;5097188;28;20278;-62
2022/12/18 12:28:41;;;;;;;;;;;14.70;99.90;;;;;;5116077;28;19908;-61
2022/12/18 12:31:26;;;;;;;;;;;14.70;99.90;;;;;;5115804;28;19907;-61
2022/12/18 12:33:55;;;;;;;;;;;14.40;99.90;;;;;;5115945;28;19908;-61
2022/12/18 12:36:40;;;;;;;;;;;14.40;99.90;;;;;;5113271;28;19911;-61
2022/12/18 12:39:08;;;;;;;;;;;14.30;99.90;;;;;;5115540;28;20002;-61
2022/12/18 12:44:30;;;;;;;;;;;14.30;99.90;;;;;;5115898;28;19960;-61
2022/12/18 12:46:58;;;;;;;;;;;14.30;99.90;;;;;;5115411;28;19934;-61
2022/12/18 12:49:26;;;;;;;;;;;14.50;99.90;;;;;;5115793;28;19990;-61
2022/12/18 12:52:07;;;;;;;;;;;14.50;99.90;;;;;;5110395;28;19927;-62
2022/12/18 12:54:34;;;;;;;;;;;14.50;99.90;;;;;;5115389;28;20315;-61
2022/12/18 12:57:04;;;;;;;;;;;14.60;99.90;;;;;;5115003;28;19924;-61
2022/12/18 12:59:40;;;;;;;;;;;14.60;99.90;;;;;;5115307;28;19922;-70
2022/12/18 13:02:06;;;;;;;;;;;14.60;99.90;;;;;;5115574;28;19908;-69
2022/12/18 13:04:59;;;;;;;;;;;14.70;99.90;;;;;;5115535;28;19930;-60
2022/12/18 13:07:36;;;;;;;;;;;14.60;99.90;;;;;;5058970;28;20338;-68
2022/12/18 13:10:15;;;;;;;;;;;14.70;99.90;;;;;;5074478;28;19909;-69
2022/12/18 13:12:57;;;;;;;;;;;14.70;99.90;;;;;;5074668;28;20003;-69
2022/12/18 13:15:33;;;;;;;;;;;14.80;99.90;;;;;;5074629;28;19930;-61
2022/12/18 13:18:12;;;;;;;;;;;14.80;99.90;;;;;;5074687;28;19916;-68
2022/12/18 13:20:46;;;;;;;;;;;14.80;99.90;;;;;;5095160;28;20304;-63
2022/12/18 13:23:28;;;;;;;;;;;14.80;99.90;;;;;;5115015;28;19963;-70
2022/12/18 13:25:59;;;;;;;;;;;14.80;99.90;;;;;;5114926;28;19923;-69
2022/12/18 13:28:44;;;;;;;;;;;14.80;99.90;;;;;;5114914;28;20002;-69
2022/12/18 13:31:10;;;;;;;;;;;14.80;99.90;;;;;;5114851;28;19943;-70
2022/12/18 13:33:47;;;;;;;;;;;14.80;99.90;;;;;;5114878;28;19915;-69
2022/12/18 13:36:13;;;;;;;;;;;14.80;99.90;;;;;;5112550;28;20285;-70
2022/12/18 13:38:41;;;;;;;;;;;14.80;99.90;;;;;;5114355;28;19916;-61
2022/12/18 13:41:22;;;;;;;;;;;14.80;99.90;;;;;;5114317;28;20373;-61
2022/12/18 13:43:50;;;;;;;;;;;14.80;99.90;;;;;;5114646;28;19911;-61
2022/12/18 13:46:18;;;;;;;;;;;14.90;99.90;;;;;;5114525;28;19908;-61
2022/12/18 13:49:05;;;;;;;;;;;14.90;99.90;;;;;;5114534;28;19908;-61
2022/12/18 13:51:33;;;;;;;;;;;14.90;99.90;;;;;;5114155;28;19955;-62
2022/12/18 13:54:22;;;;;;;;;;;14.90;99.90;;;;;;5114503;28;19908;-61
2022/12/18 13:56:49;;;;;;;;;;;15.00;99.90;;;;;;5105852;28;19931;-61
2022/12/18 13:59:21;;;;;;;;;;;15.00;99.90;;;;;;5114307;28;19908;-61
2022/12/18 14:01:49;;;;;;;;;;;15.10;99.90;;;;;;5114283;28;19908;-61
2022/12/18 14:04:20;;;;;;;;;;;15.10;99.90;;;;;;5112373;28;19919;-61
2022/12/18 14:06:48;;;;;;;;;;;15.10;99.90;;;;;;5114055;28;19908;-63
2022/12/18 14:09:19;;;;;;;;;;;15.10;99.90;;;;;;5114210;28;19915;-61
2022/12/18 14:11:50;;;;;;;;;;;15.20;99.90;;;;;;5114042;28;19914;-61
2022/12/18 14:14:17;;;;;;;;;;;15.10;99.90;;;;;;5114084;28;19915;-61
2022/12/18 14:16:44;;;;;;;;;;;15.20;99.90;;;;;;5114185;28;19914;-61
2022/12/18 14:19:14;;;;;;;;;;;15.10;99.90;;;;;;5112679;28;19935;-62
2022/12/18 14:21:41;;;;;;;;;;;15.20;99.90;;;;;;5113944;28;19912;-62
2022/12/18 14:24:18;;;;;;;;;;;15.10;99.90;;;;;;5113799;28;19915;-61
2022/12/18 14:26:44;;;;;;;;;;;15.20;99.90;;;;;;5113981;28;19915;-62
2022/12/18 14:29:23;;;;;;;;;;;15.10;99.90;;;;;;5113849;28;19932;-65
2022/12/18 14:32:08;;;;;;;;;;;15.10;99.90;;;;;;5113834;28;19952;-64
2022/12/18 14:34:35;;;;;;;;;;;15.20;99.90;;;;;;5111901;28;19912;-62
2022/12/18 14:37:01;;;;;;;;;;;15.20;99.90;;;;;;5112109;28;19962;-67
2022/12/18 14:39:28;;;;;;;;;;;15.20;99.90;;;;;;5113531;28;20358;-67